Huvudsida
METAR-TAF:

METAR-TAF

Flygplatser :

Hammerfests flygplats

Hammerfests, Norge

latitud: 70-40N, longitud: 023-40E, höjd: 8 m

Aktuellt väderrapport

Denna rapport gjordes för 38 minuter sedan, klockan 09:20 UTC
Vind 6 kt från sydväst, varierande mellan syd och väst
Temperatur 0°C
Fuktighet 59%
Tryck 995 hPa
Sikt 10 km eller mer
Brutna moln på en höjd av 4500 ft
skurar i närheten

METAR: ENHF 200920Z 22006KT 180V260 9999 VCSH BKN045 00/M07 Q0995 RMK WIND 1254FT 20013KT

Tid: 10:58 (09:58 UTC)

Väderprognos

Denna rapport gjordes för 1 timme och 58 minuter sedan, klockan 08:00 UTC
Prognos gäller från 20 kl. 09 UTC till 20 kl. 18 UTC
Vind 9 kt från syd
Sikt 10 km eller mer
Få moln på en höjd av 2000 ft
Spridda moln på en höjd av 4500 ft
Temporärt
från 20 kl. 10 UTC till 20 kl. 15 UTC
Sikt: 4000 m
Brutna moln på en höjd av 1200 ft
lätt snö

TAF: ENHF 200800Z 2009/2018 18009KT 9999 FEW020 SCT045 TEMPO 2010/2015 4000 -SN BKN012

Aktuella väderrapporter och prognoser från 4000 flygplatser (METAR- och TAF-rapporter).

De tillgängliga stationerna syns som gula och röda prickar på kartan.

För musen över prickarna för att se namnen på stationerna.

Klicka sedan för att få väderrapporter och prognoser.

För att ändra kartan: Klicka på de gröna knapparna med ett svart kors på för att zooma in; den gröna knappen med ett streck på för att zooma ut; eller på de gröna pilarna för angränsande kartor.


METAR-TAF: